• Join FlightAware (Why Join?)
  • Login
  • US Flag 
05:39AM EDT


 

Airport Tracker/Info


-or-


 

Live Flight TrackerFlight Track Log ✈ DAL6035 ✈ 19-Apr-2013 ✈ KLGA - KMHT

Flight Track Log - Related Links

Times and Time Zones

All times are in EDT time to prevent confusion due to time zone crossing. See the DAL6035 flight status page for this flight to view local times or setup timezone preferences in your user account.

Time Position Orientation Groundspeed Altitude Reporting Facility
EDT Latitude Longitude Course Direction KTS MPH feet Rate Location/Type
11:52AM 40.7667 -73.8000 37° Northeast 206 237 2,200  Level New York TRACON
11:53AM 40.8167 -73.7500 37° Northeast 274 315 4,100 2,040 Climbing New York TRACON
11:54AM 40.9000 -73.6833 31° Northeast 306 352 6,300 2,040 Climbing New York TRACON
11:56AM 41.0317 -73.5764 31° Northeast 325 374 10,200 1,920 Climbing Boston Center
11:57AM 41.1322 -73.5203 23° Northeast 338 389 12,000 1,500 Climbing Boston Center
11:58AM 41.2183 -73.4667 25° Northeast 362 417 13,200 1,200 Climbing Boston Center
11:59AM 41.3272 -73.4047 23° Northeast 381 438 14,400 1,140 Climbing Boston Center
12:00PM 41.4214 -73.3508 23° Northeast 400 460 15,500 1,140 Climbing Boston Center
12:01PM 41.5178 -73.2664 33° Northeast 408 470 16,700 1,200 Climbing Boston Center
12:02PM 41.6144 -73.1508 42° Northeast 408 470 18,000 1,140 Climbing Boston Center
12:03PM 41.7147 -73.1269 10° North 404 465 19,000 480 Climbing Boston Center
12:04PM 41.8481 -73.1453 354° North 419 482 19,000  Level Boston Center
12:05PM 41.9625 -73.1631 353° North 445 512 19,000  Level Boston Center
12:06PM 42.0978 -73.1844 353° North 445 512 19,000  Level Boston Center
12:07PM 42.2186 -73.2083 352° North 445 512 19,000  Level Boston Center
12:08PM 42.3269 -73.2264 353° North 445 512 19,000  Level Boston Center
12:09PM 42.4581 -73.2422 355° North 434 499 19,000  Level Boston Center
12:10PM 42.5503 -73.1672 31° Northeast 416 479 19,000  Level Boston Center
12:11PM 42.6033 -73.0014 66° East 402 463 19,000  Level Boston Center
12:12PM 42.6497 -72.8439 68° East 421 484 19,000 -600 Level Boston Center
12:13PM 42.6919 -72.6858 70° East 435 501 17,800 -1,500 Descending Boston Center
12:15PM 42.7275 -72.5190 74° East  Level FlightAware Approximate
12:15PM 42.7756 -72.3667 74° East 447 514 14,500  Level Boston Center
12:16PM 42.8003 -72.2108 78° East 435 501 12,400 -1,920 Descending Boston Center
12:17PM 42.8103 -72.0864 84° East 388 447 10,800 -1,680 Descending Boston Center
12:18PM 42.8411 -71.9617 71° East 333 383 9,100 -1,860 Descending Boston Center
12:19PM 42.8928 -71.8706 52° Northeast 322 371 7,200 -1,920 Descending Boston Center
12:20PM 42.9528 -71.7650 52° Northeast 327 376 5,400 -1,440 Descending Boston Center
12:21PM 42.9981 -71.6822 53° Northeast 314 361 4,300 -1,080 Descending Boston Center
12:22PM 43.0517 -71.5906 51° Northeast 287 330 3,300 -960 Descending Boston Center
12:23PM 43.0761 -71.5164 66° East 249 287 2,500 -660 Descending Boston Center
12:24PM 43.0319 -71.4858 153° Southeast 136 157 2,000 -600 Descending Boston Center
12:25PM 42.9903 -71.4694 164° South 150 173 1,400 -780 Descending Boston Center
12:26PM 42.9525 -71.4472 157° South 154 177 500 -540 Descending Boston Center
12:27PM 42.9128 -71.4281 161° South 154 177 400 9,300 Descending Boston Center
12:28PM 42.8708 -71.4061 159° South 154 177 19,000 9,420 Climbing Boston Center
12:29PM 42.8289 -71.3869 161° South 154 177 19,000  Level Boston Center
12:30PM 42.7872 -71.3650 159° South 154 177 19,000  Level Boston Center
12:31PM 42.7789 -71.3625 168° South 154 177 19,000  Level Boston Center
12:33PM 42.8885 -71.4188 339° North  Level FlightAware Approximate
12:40PM 42.9167 -71.4333 338° Northwest  Level FlightAware Approximate
12:41PM 42.9328 -71.4358 338° Northwest  Level Estimated
12:42PM 42.9328 -71.4358 338° Northwest  Level Estimated